Platzwetter Flugplatz Wels

Flugwetter Linz LOWL

[Quelle: ADDS]
METAR
LOWL 221020Z VRB04KT 9999 FEW032 24/16 Q1011 NOSIG =
LOWL 220515Z 2206/2306 25010KT 9999 BKN025 TX28/2214Z TN19/2303Z BECMG 2208/2210 30005KT SCT040 TEMPO 2218/2302 35012KT SCT040CB PROB40 TEMPO 2218/2224 3000 TSRA TEMPO 2300/2306 VRB02KT -SHRA BKN020
TAF
LOWL 220515Z 2206/2306 25010KT 9999 BKN025 TX28/2214Z TN19/2303Z BECMG 2208/2210 30005KT SCT040 TEMPO 2218/2302 35012KT SCT040CB PROB40 TEMPO 2218/2224 3000 TSRA TEMPO 2300/2306 VRB02KT -SHRA BKN020 =

Flugwetter Salzburg LOWS

[Quelle: ADDS]
METAR
LOWS 221020Z 32009KT 9999 FEW045 25/17 Q1011 NOSIG =
LOWS 220515Z 2206/2306 15005KT 9999 FEW060 TX28/2213Z TN17/2303Z BECMG 2208/2210 34007KT TEMPO 2216/2220 30015G30KT 4000 TSRA SCT030CB BKN040 TEMPO 2220/2302 SHRA FEW020CB BKN030 PROB30 TEMPO 2220/2224 29015G30KT TSRA TEMPO 2302/2306 15004KT
TAF
LOWS 220515Z 2206/2306 15005KT 9999 FEW060 TX28/2213Z TN17/2303Z BECMG 2208/2210 34007KT TEMPO 2216/2220 30015G30KT 4000 TSRA SCT030CB BKN040 TEMPO 2220/2302 SHRA FEW020CB BKN030 PROB30 TEMPO 2220/2224 29015G30KT TSRA TEMPO 2302/2306 15004KT =

Wind - Verlauf

Windrichtung - Verlauf

Temperatur - Verlauf

Relative Luftfeuchtigkeit - Verlauf

Luftdruck - Verlauf

Cookies erleichtern die Bereitstellung unserer Dienste. Mit der Nutzung unserer Dienste erklären Sie sich damit einverstanden, dass wir Cookies verwenden.
Weitere Informationen Ok